createdAt,value
2023-05-24T00:01:48.786Z,12.10
2023-05-24T00:04:53.447Z,12.02
2023-05-24T00:07:56.450Z,13.65
2023-05-24T00:10:59.511Z,15.23
2023-05-24T00:14:04.614Z,12.00
2023-05-24T00:17:07.388Z,12.68
2023-05-24T00:20:12.556Z,10.40
2023-05-24T00:23:15.363Z,12.52
2023-05-24T00:26:18.332Z,9.75
2023-05-24T00:29:31.434Z,10.32
2023-05-24T00:32:36.273Z,12.60
2023-05-24T00:35:39.604Z,12.30
2023-05-24T00:38:42.547Z,14.18
2023-05-24T00:41:45.476Z,12.10
2023-05-24T00:44:48.434Z,11.70
2023-05-24T00:47:51.251Z,11.82
2023-05-24T00:50:54.142Z,11.75
2023-05-24T00:53:57.263Z,11.65
2023-05-24T00:57:00.327Z,10.20
2023-05-24T01:00:05.718Z,12.35
2023-05-24T01:03:10.770Z,11.73
2023-05-24T01:06:13.865Z,13.93
2023-05-24T01:09:28.811Z,12.80
2023-05-24T01:12:47.553Z,13.55
2023-05-24T01:16:21.986Z,12.32
2023-05-24T01:19:49.522Z,17.17
2023-05-24T01:23:21.944Z,13.95
2023-05-24T01:26:54.647Z,14.88
2023-05-24T01:29:58.715Z,15.10
2023-05-24T01:33:03.499Z,14.05
2023-05-24T01:36:06.850Z,16.08
2023-05-24T01:39:10.252Z,16.88
2023-05-24T01:42:22.527Z,16.10
2023-05-24T01:45:56.996Z,15.18
2023-05-24T01:49:20.745Z,13.10
2023-05-24T01:52:27.091Z,14.88
2023-05-24T01:55:31.956Z,19.38
2023-05-24T01:58:35.613Z,17.13
2023-05-24T02:01:38.995Z,16.33
2023-05-24T02:04:42.174Z,16.88
2023-05-24T02:07:44.903Z,22.73
2023-05-24T02:10:47.702Z,18.35
2023-05-24T02:13:50.409Z,18.20
2023-05-24T02:16:53.612Z,16.90
2023-05-24T02:19:56.693Z,19.00
2023-05-24T02:23:00.449Z,14.50
2023-05-24T02:26:03.155Z,12.27
2023-05-24T02:29:06.611Z,13.77
2023-05-24T02:32:09.599Z,13.60
2023-05-24T02:35:12.719Z,13.00
2023-05-24T02:38:15.615Z,13.98
2023-05-24T02:41:19.566Z,16.40
2023-05-24T02:44:22.477Z,14.98
2023-05-24T02:47:27.333Z,16.58
2023-05-24T02:50:30.222Z,15.98
2023-05-24T02:53:33.742Z,17.55
2023-05-24T02:56:37.767Z,15.15
2023-05-24T02:59:40.613Z,19.67
2023-05-24T03:02:43.457Z,18.65
2023-05-24T03:05:46.458Z,17.25
2023-05-24T03:08:50.143Z,14.95
2023-05-24T03:11:54.779Z,15.43
2023-05-24T03:14:57.792Z,24.40
2023-05-24T03:18:01.277Z,16.33
2023-05-24T03:21:04.508Z,18.70
2023-05-24T03:24:07.674Z,14.70
2023-05-24T03:27:10.902Z,15.60
2023-05-24T03:30:13.973Z,16.52
2023-05-24T03:33:25.757Z,16.00
2023-05-24T03:36:31.504Z,14.73
2023-05-24T03:39:34.436Z,14.05
2023-05-24T03:42:51.278Z,14.43
2023-05-24T03:45:56.017Z,14.05
2023-05-24T03:48:58.955Z,15.05
2023-05-24T03:52:01.814Z,16.00
2023-05-24T03:55:05.022Z,17.08
2023-05-24T03:58:07.758Z,16.23
2023-05-24T04:01:21.936Z,13.32
2023-05-24T04:04:32.499Z,16.20
2023-05-24T04:07:35.406Z,13.02
2023-05-24T04:10:38.533Z,14.05
2023-05-24T04:13:41.749Z,14.13
2023-05-24T04:16:45.336Z,11.00
2023-05-24T04:19:48.389Z,15.57
2023-05-24T04:22:51.986Z,10.52
2023-05-24T04:25:55.144Z,11.57
2023-05-24T04:28:58.334Z,10.27
2023-05-24T04:32:01.480Z,9.27
2023-05-24T04:35:04.856Z,9.18
2023-05-24T04:38:08.104Z,8.85
2023-05-24T04:41:12.242Z,10.07
2023-05-24T04:44:15.295Z,19.00
2023-05-24T04:47:18.178Z,12.55
2023-05-24T04:50:21.001Z,10.93
2023-05-24T04:53:24.106Z,11.85
2023-05-24T04:56:27.419Z,10.13
2023-05-24T04:59:30.575Z,10.75
2023-05-24T05:02:33.471Z,14.27
2023-05-24T05:05:36.704Z,10.98
2023-05-24T05:08:39.606Z,10.00
2023-05-24T05:11:42.402Z,10.32
2023-05-24T05:14:45.396Z,9.55
2023-05-24T05:17:48.421Z,13.65
2023-05-24T05:20:52.287Z,12.93
2023-05-24T05:23:55.083Z,11.25
2023-05-24T05:26:58.211Z,11.52
2023-05-24T05:30:01.211Z,11.82
2023-05-24T05:33:06.416Z,11.02
2023-05-24T05:36:09.222Z,11.13
2023-05-24T05:39:12.218Z,10.18
2023-05-24T05:42:14.959Z,11.45
2023-05-24T05:45:17.711Z,11.75
2023-05-24T05:48:20.430Z,14.45
2023-05-24T05:51:23.125Z,12.18
2023-05-24T05:54:26.903Z,10.18
2023-05-24T05:57:29.729Z,9.90
2023-05-24T06:00:32.510Z,10.98
2023-05-24T06:03:35.484Z,10.63
2023-05-24T06:06:38.399Z,10.23
2023-05-24T06:09:41.587Z,10.10
2023-05-24T06:12:44.817Z,17.83
2023-05-24T06:15:47.939Z,9.90
2023-05-24T06:19:04.671Z,8.93
2023-05-24T06:22:09.156Z,10.00
2023-05-24T06:25:15.201Z,12.13
2023-05-24T06:28:18.290Z,10.23
2023-05-24T06:31:21.466Z,12.05
2023-05-24T06:34:24.675Z,11.60
2023-05-24T06:37:31.810Z,8.70
2023-05-24T06:40:34.603Z,10.45
2023-05-24T06:43:37.506Z,9.13
2023-05-24T06:46:41.207Z,8.48
2023-05-24T06:49:44.217Z,7.82
2023-05-24T06:52:46.985Z,8.30
2023-05-24T06:55:50.007Z,6.43
2023-05-24T06:58:53.160Z,10.77
2023-05-24T07:01:59.509Z,6.95
2023-05-24T07:05:04.055Z,11.55
2023-05-24T07:08:07.491Z,5.43
2023-05-24T07:11:10.659Z,6.72
2023-05-24T07:14:13.723Z,7.50
2023-05-24T07:17:16.695Z,5.93
2023-05-24T07:20:19.816Z,6.75
2023-05-24T07:23:22.738Z,7.30
2023-05-24T07:26:25.780Z,6.85
2023-05-24T07:29:28.918Z,8.80
2023-05-24T07:32:33.558Z,7.28
2023-05-24T07:35:36.815Z,8.45
2023-05-24T07:38:39.979Z,5.93
2023-05-24T07:41:43.062Z,7.78
2023-05-24T07:44:46.199Z,9.27
2023-05-24T07:47:49.082Z,4.97
2023-05-24T07:50:53.195Z,7.35
2023-05-24T07:53:56.523Z,5.18
2023-05-24T07:56:59.569Z,6.68
2023-05-24T08:00:10.507Z,4.60
2023-05-24T08:03:17.847Z,4.88
2023-05-24T08:06:21.121Z,8.13
2023-05-24T08:09:24.106Z,5.55
2023-05-24T08:12:26.942Z,5.13
2023-05-24T08:15:29.913Z,5.00
2023-05-24T08:18:33.577Z,6.55
2023-05-24T08:21:37.695Z,6.30
2023-05-24T08:24:40.957Z,5.55
2023-05-24T08:27:43.944Z,6.40
2023-05-24T08:30:46.869Z,4.70
2023-05-24T08:33:52.718Z,7.50
2023-05-24T08:36:56.430Z,6.75
2023-05-24T08:39:59.967Z,5.28
2023-05-24T08:43:03.304Z,5.95
2023-05-24T08:46:06.961Z,5.30
2023-05-24T08:49:12.941Z,6.45
2023-05-24T08:52:16.824Z,6.68
2023-05-24T08:55:20.134Z,6.00
2023-05-24T08:58:22.918Z,5.93
2023-05-24T09:01:27.748Z,6.72
2023-05-24T09:04:34.362Z,8.85
2023-05-24T09:07:37.712Z,5.35
2023-05-24T09:10:53.174Z,4.40
2023-05-24T09:17:01.482Z,5.25
2023-05-24T09:20:07.540Z,4.82
2023-05-24T09:23:11.533Z,5.13
2023-05-24T09:26:14.576Z,6.05
2023-05-24T09:29:17.396Z,4.18
2023-05-24T09:32:24.603Z,5.22
2023-05-24T09:35:28.668Z,6.72
2023-05-24T09:38:31.703Z,4.82
2023-05-24T09:41:34.696Z,4.85
2023-05-24T09:44:37.722Z,4.57
2023-05-24T09:47:41.723Z,3.67
2023-05-24T09:50:47.816Z,4.07
2023-05-24T09:53:53.050Z,5.43
2023-05-24T09:56:56.263Z,3.35
2023-05-24T10:00:15.040Z,4.40
2023-05-24T10:03:18.163Z,5.20
2023-05-24T10:06:21.951Z,7.05
2023-05-24T10:09:25.613Z,6.07
2023-05-24T10:15:34.721Z,3.75
2023-05-24T10:18:37.654Z,4.15
2023-05-24T10:21:43.557Z,5.85
2023-05-24T10:24:51.206Z,7.80
2023-05-24T10:28:03.899Z,4.47
2023-05-24T10:31:13.833Z,3.65
2023-05-24T10:34:19.138Z,5.82
2023-05-24T10:37:22.037Z,6.15
2023-05-24T10:40:27.948Z,6.30
2023-05-24T10:43:31.087Z,3.72
2023-05-24T10:46:34.333Z,4.93
2023-05-24T10:49:38.257Z,4.47
2023-05-24T10:52:42.315Z,5.82
2023-05-24T10:55:59.051Z,5.80
2023-05-24T10:59:06.616Z,4.18
2023-05-24T11:02:14.231Z,5.32
2023-05-24T11:05:17.532Z,5.43
2023-05-24T11:08:23.674Z,5.72
2023-05-24T11:11:32.065Z,7.00
2023-05-24T11:14:42.984Z,7.43
2023-05-24T11:18:14.285Z,8.55
2023-05-24T11:21:17.550Z,10.30
2023-05-24T11:24:22.386Z,8.55
2023-05-24T11:27:26.034Z,6.05
2023-05-24T11:30:29.281Z,6.28
2023-05-24T11:33:32.525Z,7.35
2023-05-24T11:36:37.836Z,8.13
2023-05-24T11:39:40.808Z,7.65
2023-05-24T11:42:44.955Z,6.53
2023-05-24T11:45:50.261Z,7.60
2023-05-24T11:49:00.209Z,5.70
2023-05-24T11:52:04.271Z,5.40
2023-05-24T11:55:08.273Z,6.10
2023-05-24T11:58:17.549Z,20.10
2023-05-24T12:01:27.760Z,6.18
2023-05-24T12:04:31.577Z,7.25
2023-05-24T12:07:34.882Z,6.65
2023-05-24T12:10:38.954Z,8.85
2023-05-24T12:13:42.005Z,5.05
2023-05-24T12:16:45.839Z,7.28
2023-05-24T12:19:52.496Z,6.20
2023-05-24T12:22:56.833Z,6.57
2023-05-24T12:26:03.421Z,8.18
2023-05-24T12:32:15.208Z,7.10
2023-05-24T12:35:19.011Z,6.00
2023-05-24T12:38:25.882Z,6.22
2023-05-24T12:41:32.032Z,6.72
2023-05-24T12:44:37.036Z,5.50
2023-05-24T12:47:39.830Z,5.53
2023-05-24T12:50:43.106Z,6.70
2023-05-24T12:53:46.897Z,8.15
2023-05-24T12:56:50.649Z,8.00
2023-05-24T12:59:54.208Z,9.75
2023-05-24T13:02:59.369Z,6.60
2023-05-24T13:06:02.622Z,7.05
2023-05-24T13:09:06.946Z,5.13
2023-05-24T13:12:10.364Z,6.63
2023-05-24T13:15:14.387Z,6.22
2023-05-24T13:18:17.664Z,4.55
2023-05-24T13:21:20.970Z,5.60
2023-05-24T13:24:23.780Z,7.47
2023-05-24T13:27:27.031Z,7.10
2023-05-24T13:30:30.392Z,6.03
2023-05-24T13:33:36.255Z,8.35
2023-05-24T13:36:39.691Z,7.50
2023-05-24T13:39:42.940Z,7.07
2023-05-24T13:42:45.934Z,8.20
2023-05-24T13:45:48.887Z,14.73
2023-05-24T13:48:51.927Z,14.05
2023-05-24T13:51:58.228Z,10.90
2023-05-24T13:55:05.141Z,7.07
2023-05-24T13:58:08.219Z,6.93
2023-05-24T14:01:11.231Z,19.67
2023-05-24T14:04:14.322Z,5.63
2023-05-24T14:07:17.182Z,5.90
2023-05-24T14:10:21.586Z,8.85
2023-05-24T14:14:13.753Z,10.50
2023-05-24T14:16:52.277Z,7.13
2023-05-24T14:19:55.512Z,17.17
2023-05-24T14:22:58.676Z,12.35
2023-05-24T14:26:02.198Z,6.78
2023-05-24T14:29:05.941Z,6.78
2023-05-24T14:32:10.295Z,8.18
2023-05-24T14:35:13.082Z,5.63
2023-05-24T14:38:16.091Z,6.60
2023-05-24T14:41:19.129Z,5.65
2023-05-24T14:44:22.065Z,6.82
2023-05-24T14:47:25.239Z,6.82
2023-05-24T14:50:28.067Z,6.35
2023-05-24T14:53:30.997Z,5.90
2023-05-24T14:56:34.293Z,10.02
2023-05-24T14:59:37.316Z,7.10
2023-05-24T15:02:40.399Z,6.18
2023-05-24T15:05:43.638Z,6.57
2023-05-24T15:08:47.068Z,5.45
2023-05-24T15:11:50.448Z,5.53
2023-05-24T15:14:53.550Z,10.10
2023-05-24T15:17:57.672Z,12.13
2023-05-24T15:21:00.711Z,7.28
2023-05-24T15:24:03.745Z,5.03
2023-05-24T15:27:06.766Z,7.65
2023-05-24T15:30:09.603Z,6.25
2023-05-24T15:33:12.708Z,6.13
2023-05-24T15:36:17.664Z,5.35
2023-05-24T15:39:21.581Z,7.30
2023-05-24T15:42:25.666Z,4.93
2023-05-24T15:45:28.657Z,8.60
2023-05-24T15:48:31.870Z,5.53
2023-05-24T15:52:03.070Z,9.07
2023-05-24T15:54:57.740Z,5.70
2023-05-24T15:58:01.444Z,6.68
2023-05-24T16:01:04.717Z,5.70
2023-05-24T16:04:07.933Z,8.93
2023-05-24T16:07:12.336Z,5.78
2023-05-24T16:10:15.302Z,6.97
2023-05-24T16:13:18.258Z,6.90
2023-05-24T16:16:23.999Z,6.70
2023-05-24T16:19:27.100Z,5.37
2023-05-24T16:22:30.488Z,6.20
2023-05-24T16:25:33.233Z,6.55
2023-05-24T16:28:36.550Z,7.75
2023-05-24T16:31:39.719Z,6.72
2023-05-24T16:34:56.080Z,7.55
2023-05-24T16:38:00.234Z,5.78
2023-05-24T16:41:03.409Z,5.63
2023-05-24T16:44:06.762Z,6.45
2023-05-24T16:47:09.850Z,5.18
2023-05-24T16:50:15.800Z,5.90
2023-05-24T16:53:20.853Z,5.13
2023-05-24T16:56:23.917Z,5.78
2023-05-24T16:59:26.930Z,6.35
2023-05-24T17:02:30.099Z,9.00
2023-05-24T17:05:36.166Z,17.98
2023-05-24T17:08:39.179Z,8.20
2023-05-24T17:11:41.932Z,5.85
2023-05-24T17:14:45.870Z,5.43
2023-05-24T17:17:48.761Z,6.85
2023-05-24T17:20:52.381Z,6.57
2023-05-24T17:23:56.316Z,5.55
2023-05-24T17:26:59.701Z,6.18
2023-05-24T17:30:02.994Z,10.00
2023-05-24T17:33:06.146Z,6.47
2023-05-24T17:36:10.080Z,7.10
2023-05-24T17:39:13.354Z,6.60
2023-05-24T17:42:17.924Z,6.45
2023-05-24T17:45:21.297Z,7.97
2023-05-24T17:48:26.288Z,7.53
2023-05-24T17:51:29.390Z,8.45
2023-05-24T17:54:32.378Z,10.23
2023-05-24T17:57:35.874Z,8.38
2023-05-24T18:00:38.936Z,7.53
2023-05-24T18:03:43.182Z,9.88
2023-05-24T18:06:46.378Z,6.55
2023-05-24T18:09:49.257Z,8.77
2023-05-24T18:12:52.251Z,7.32
2023-05-24T18:15:57.471Z,9.30
2023-05-24T18:19:02.996Z,7.75
2023-05-24T18:22:06.560Z,12.85
2023-05-24T18:25:09.956Z,9.20
2023-05-24T18:28:13.312Z,8.88
2023-05-24T18:31:16.647Z,7.88
2023-05-24T18:34:19.984Z,9.35
2023-05-24T18:37:23.580Z,12.88
2023-05-24T18:40:26.759Z,7.78
2023-05-24T18:43:30.110Z,9.20
2023-05-24T18:46:33.559Z,9.45
2023-05-24T18:49:37.327Z,8.90
2023-05-24T18:52:40.697Z,13.40
2023-05-24T18:55:43.789Z,15.35
2023-05-24T18:58:50.209Z,11.52
2023-05-24T19:01:58.579Z,11.20
2023-05-24T19:05:01.795Z,12.48
2023-05-24T19:08:04.788Z,12.80
2023-05-24T19:11:08.131Z,12.23
2023-05-24T19:14:12.917Z,14.52
2023-05-24T19:17:15.849Z,13.00
2023-05-24T19:20:18.809Z,14.20
2023-05-24T19:23:21.816Z,13.85
2023-05-24T19:26:24.804Z,13.57
2023-05-24T19:29:28.354Z,15.13
2023-05-24T19:32:31.584Z,14.43
2023-05-24T19:35:35.402Z,14.30
2023-05-24T19:38:38.310Z,13.10
2023-05-24T19:41:41.719Z,13.10
2023-05-24T19:44:44.636Z,15.88
2023-05-24T19:47:47.489Z,14.43
2023-05-24T19:50:51.049Z,17.40
2023-05-24T19:53:53.746Z,17.20
2023-05-24T19:56:58.215Z,15.20
2023-05-24T20:00:01.346Z,17.88
2023-05-24T20:03:06.458Z,15.10
2023-05-24T20:06:09.259Z,19.67
2023-05-24T20:09:12.372Z,14.75
2023-05-24T20:12:15.435Z,14.45
2023-05-24T20:15:18.414Z,19.60
2023-05-24T20:18:21.144Z,14.50
2023-05-24T20:21:24.101Z,16.58
2023-05-24T20:24:27.207Z,16.92
2023-05-24T20:27:30.057Z,16.48
2023-05-24T20:30:33.814Z,17.45
2023-05-24T20:33:38.581Z,16.35
2023-05-24T20:36:43.561Z,18.02
2023-05-24T20:39:49.700Z,16.27
2023-05-24T20:42:52.976Z,15.77
2023-05-24T20:45:55.932Z,17.23
2023-05-24T20:48:58.834Z,18.77
2023-05-24T20:52:02.037Z,16.73
2023-05-24T20:55:05.237Z,18.80
2023-05-24T20:58:08.104Z,16.38
2023-05-24T21:01:11.211Z,16.17
2023-05-24T21:04:14.814Z,16.55
2023-05-24T21:07:17.718Z,18.38
2023-05-24T21:10:23.321Z,17.17
2023-05-24T21:13:27.390Z,18.55
2023-05-24T21:16:30.419Z,15.90
2023-05-24T21:19:33.134Z,16.35
2023-05-24T21:22:35.988Z,18.40
2023-05-24T21:25:39.164Z,17.75
2023-05-24T21:28:42.167Z,15.98
2023-05-24T21:31:45.105Z,16.02
2023-05-24T21:34:48.006Z,19.30
2023-05-24T21:37:50.951Z,16.20
2023-05-24T21:40:53.908Z,24.27
2023-05-24T21:43:56.821Z,18.27
2023-05-24T21:46:59.619Z,16.05
2023-05-24T21:50:02.500Z,17.05
2023-05-24T21:53:05.335Z,20.05
2023-05-24T21:56:08.205Z,19.77
2023-05-24T21:59:11.035Z,18.75
2023-05-24T22:02:15.085Z,19.77
2023-05-24T22:05:18.620Z,20.13
2023-05-24T22:08:21.567Z,18.67
2023-05-24T22:11:24.547Z,17.58
2023-05-24T22:14:27.561Z,20.45
2023-05-24T22:17:32.985Z,26.35
2023-05-24T22:20:36.985Z,22.67
2023-05-24T22:23:40.110Z,19.27
2023-05-24T22:26:47.373Z,19.25
2023-05-24T22:29:50.298Z,19.30
2023-05-24T22:32:53.375Z,18.77
2023-05-24T22:35:56.201Z,17.58
2023-05-24T22:39:00.156Z,19.98
2023-05-24T22:42:03.234Z,20.98
2023-05-24T22:45:07.255Z,19.48
2023-05-24T22:48:10.734Z,22.83
2023-05-24T22:51:13.795Z,22.45
2023-05-24T22:54:17.349Z,18.30
2023-05-24T22:57:23.376Z,19.60
2023-05-24T23:00:26.941Z,21.75
2023-05-24T23:03:29.912Z,22.98
2023-05-24T23:06:32.605Z,18.13
2023-05-24T23:09:35.621Z,19.80
2023-05-24T23:12:42.704Z,20.35
2023-05-24T23:18:48.402Z,23.25
2023-05-24T23:21:52.610Z,24.52
2023-05-24T23:24:55.575Z,21.50
2023-05-24T23:27:58.342Z,20.88
2023-05-24T23:31:01.303Z,21.35
2023-05-24T23:34:04.917Z,24.40
2023-05-24T23:37:08.077Z,21.17
2023-05-24T23:40:11.682Z,25.05
2023-05-24T23:43:14.691Z,22.02
2023-05-24T23:46:17.647Z,22.23
2023-05-24T23:49:20.970Z,21.42
2023-05-24T23:52:25.448Z,22.35
2023-05-24T23:55:28.489Z,26.40
2023-05-24T23:58:32.382Z,20.92
